Time;durP1;ratioP1;P1;durP2;ratioP2;P2;SDS_P1;SDS_P2;PMS_P1;PMS_P2;Temp;Humidity;BMP_temperature;BMP_pressure;BME280_temperature;BME280_humidity;BME280_pressure;Samples;Min_cycle;Max_cycle;Signal;HPM_P1;HPM_P2
2024/01/27 00:00:54;;;;;;;12.40;3.87;;;2.30;99.90;;;;;;5059901;28;21307;-68
2024/01/27 00:03:22;;;;;;;10.07;2.53;;;2.20;99.90;;;;;;5057185;28;20492;-68
2024/01/27 00:05:50;;;;;;;13.60;2.53;;;2.10;99.90;;;;;;5061287;28;20455;-68
2024/01/27 00:08:18;;;;;;;8.90;2.10;;;1.90;99.90;;;;;;5061069;28;20461;-68
2024/01/27 00:10:47;;;;;;;9.63;2.77;;;2.00;99.90;;;;;;5060476;28;21213;-68
2024/01/27 00:13:15;;;;;;;9.13;2.53;;;2.10;99.90;;;;;;5057984;28;20462;-68
2024/01/27 00:15:43;;;;;;;8.40;2.70;;;2.20;99.90;;;;;;5060146;28;20932;-69
2024/01/27 00:18:11;;;;;;;13.43;2.70;;;2.20;99.90;;;;;;5061348;28;20481;-69
2024/01/27 00:20:40;;;;;;;9.73;2.50;;;2.30;99.90;;;;;;5059320;28;20442;-71
2024/01/27 00:23:08;;;;;;;13.70;3.00;;;2.30;99.90;;;;;;5058688;28;20454;-71
2024/01/27 00:25:36;;;;;;;11.77;2.80;;;2.40;99.90;;;;;;5058977;28;20846;-67
2024/01/27 00:28:05;;;;;;;10.70;3.30;;;2.40;99.90;;;;;;5059196;28;20494;-67
2024/01/27 00:30:33;;;;;;;8.57;2.10;;;2.20;99.90;;;;;;5058111;28;20656;-70
2024/01/27 00:33:02;;;;;;;11.53;3.17;;;2.10;99.90;;;;;;5058901;28;20972;-70
2024/01/27 00:35:30;;;;;;;13.50;2.20;;;2.20;99.90;;;;;;5058703;28;21429;-70
2024/01/27 00:37:58;;;;;;;11.25;3.25;;;2.10;99.90;;;;;;5058905;28;20499;-68
2024/01/27 00:40:26;;;;;;;15.00;3.40;;;2.00;99.90;;;;;;5057639;28;20214;-71
2024/01/27 00:42:54;;;;;;;10.18;2.70;;;2.30;99.90;;;;;;5058140;28;20450;-70
2024/01/27 00:45:23;;;;;;;10.20;3.17;;;2.40;99.90;;;;;;5058702;28;20228;-69
2024/01/27 00:47:51;;;;;;;8.63;2.60;;;2.40;99.90;;;;;;5059122;28;20462;-69
2024/01/27 00:50:20;;;;;;;9.80;2.60;;;2.40;99.90;;;;;;5060283;28;20550;-69
2024/01/27 00:52:48;;;;;;;9.73;2.83;;;2.30;99.90;;;;;;5065223;28;21020;-69
2024/01/27 00:55:17;;;;;;;9.98;3.10;;;2.20;99.90;;;;;;5060174;28;20443;-69
2024/01/27 00:57:45;;;;;;;11.43;3.20;;;2.10;99.90;;;;;;5068448;28;20706;-71
2024/01/27 01:00:14;;;;;;;9.80;3.40;;;2.00;99.90;;;;;;5067455;28;20527;-69
2024/01/27 01:02:43;;;;;;;11.60;4.00;;;1.90;99.90;;;;;;5030865;28;20504;-69
2024/01/27 01:05:11;;;;;;;9.63;3.45;;;1.80;99.90;;;;;;5067796;28;20226;-71
2024/01/27 01:07:39;;;;;;;10.82;4.05;;;1.70;99.90;;;;;;5069324;28;20225;-70
2024/01/27 01:10:08;;;;;;;11.32;3.35;;;1.50;99.90;;;;;;5069004;28;20204;-69
2024/01/27 01:12:37;;;;;;;10.68;3.70;;;1.30;99.90;;;;;;5068509;28;20605;-71
2024/01/27 01:15:06;;;;;;;10.93;3.30;;;1.30;99.90;;;;;;5068848;28;20238;-71
2024/01/27 01:17:34;;;;;;;12.40;3.60;;;1.20;99.90;;;;;;5068901;28;20226;-69
2024/01/27 01:20:04;;;;;;;12.30;3.47;;;0.90;99.90;;;;;;5068477;28;20276;-70
2024/01/27 01:22:32;;;;;;;11.30;4.00;;;0.90;99.90;;;;;;5067777;28;20543;-69
2024/01/27 01:24:59;;;;;;;10.95;4.88;;;1.10;99.90;;;;;;5068832;28;20493;-70
2024/01/27 01:27:27;;;;;;;10.30;3.70;;;1.20;99.90;;;;;;5068427;28;20264;-72
2024/01/27 01:29:55;;;;;;;12.25;3.10;;;1.20;99.90;;;;;;5068184;28;20210;-71
2024/01/27 01:32:23;;;;;;;11.98;3.40;;;1.20;99.90;;;;;;5067050;28;20210;-71
2024/01/27 01:34:51;;;;;;;8.80;2.90;;;1.10;99.90;;;;;;5067043;28;20211;-70
2024/01/27 01:37:21;;;;;;;11.90;3.83;;;1.00;99.90;;;;;;5067680;28;20234;-69
2024/01/27 01:39:49;;;;;;;11.02;3.50;;;0.90;99.90;;;;;;5067553;28;20213;-68
2024/01/27 01:42:18;;;;;;;9.40;3.28;;;0.90;99.90;;;;;;5066887;28;20712;-69
2024/01/27 01:44:46;;;;;;;13.57;4.00;;;1.00;99.90;;;;;;5067141;28;20226;-70
2024/01/27 01:47:14;;;;;;;10.93;3.90;;;1.20;99.90;;;;;;5067646;28;20212;-70
2024/01/27 01:49:42;;;;;;;12.20;3.75;;;1.20;99.90;;;;;;5067516;28;20216;-72
2024/01/27 01:52:11;;;;;;;10.52;2.95;;;1.20;99.90;;;;;;5066233;28;20313;-70
2024/01/27 01:54:40;;;;;;;11.50;3.00;;;1.20;99.90;;;;;;5067167;28;20239;-69
2024/01/27 01:57:08;;;;;;;13.77;3.83;;;1.30;99.90;;;;;;5066992;28;20203;-71
2024/01/27 01:59:40;;;;;;;11.82;3.75;;;1.20;99.90;;;;;;5066856;28;20213;-70
2024/01/27 02:02:09;;;;;;;10.80;3.75;;;1.10;99.90;;;;;;5064338;28;20914;-68
2024/01/27 02:04:41;;;;;;;9.52;3.08;;;1.10;99.90;;;;;;5067756;28;20237;-69
2024/01/27 02:07:09;;;;;;;11.30;3.85;;;1.00;99.90;;;;;;5066864;28;20217;-70
2024/01/27 02:09:37;;;;;;;11.32;4.10;;;1.10;99.90;;;;;;5066739;28;20205;-69
2024/01/27 02:12:07;;;;;;;10.85;2.88;;;1.20;99.90;;;;;;5065546;28;20212;-69
2024/01/27 02:14:36;;;;;;;13.30;3.42;;;1.10;99.90;;;;;;5066460;28;20289;-69
2024/01/27 02:17:05;;;;;;;12.57;3.35;;;1.10;99.90;;;;;;5066673;28;20210;-69
2024/01/27 02:19:33;;;;;;;11.32;3.35;;;1.00;99.90;;;;;;5066914;28;20203;-71
2024/01/27 02:22:02;;;;;;;16.25;3.70;;;0.90;99.90;;;;;;5064757;28;20713;-70
2024/01/27 02:24:31;;;;;;;11.40;3.03;;;1.00;99.90;;;;;;5066174;28;20215;-71
2024/01/27 02:27:00;;;;;;;9.85;3.00;;;1.00;99.90;;;;;;5066404;28;20214;-69
2024/01/27 02:29:28;;;;;;;9.63;3.40;;;0.90;99.90;;;;;;5066601;28;20618;-69
2024/01/27 02:31:56;;;;;;;9.68;3.10;;;0.90;99.90;;;;;;5065176;28;20219;-69
2024/01/27 02:34:24;;;;;;;13.75;3.60;;;0.90;99.90;;;;;;5065904;28;20846;-69
2024/01/27 02:36:52;;;;;;;12.77;3.42;;;0.90;99.90;;;;;;5067209;28;20266;-69
2024/01/27 02:39:21;;;;;;;11.90;3.20;;;0.80;99.90;;;;;;5066906;28;20229;-69
2024/01/27 02:41:50;;;;;;;9.02;3.42;;;0.60;99.90;;;;;;5065957;28;20568;-72
2024/01/27 02:44:18;;;;;;;10.95;3.40;;;0.50;99.90;;;;;;5066267;28;20211;-68
2024/01/27 02:46:46;;;;;;;11.10;3.60;;;0.50;99.90;;;;;;5066221;28;20230;-69
2024/01/27 02:49:14;;;;;;;11.65;3.28;;;0.40;99.90;;;;;;5065954;28;20235;-69
2024/01/27 02:51:42;;;;;;;9.30;3.03;;;0.30;99.90;;;;;;5064986;28;20214;-69
2024/01/27 02:54:10;;;;;;;10.57;2.83;;;0.20;99.90;;;;;;5065569;28;20252;-70
2024/01/27 02:56:38;;;;;;;10.30;3.03;;;0.10;99.90;;;;;;5065876;28;20259;-69
2024/01/27 02:59:07;;;;;;;10.60;3.17;;;0.10;99.90;;;;;;5065644;28;20595;-68
2024/01/27 03:01:35;;;;;;;12.57;3.90;;;0.10;99.90;;;;;;5064642;28;20221;-70
2024/01/27 03:04:03;;;;;;;11.30;4.40;;;0.20;99.90;;;;;;5065185;28;20210;-69
2024/01/27 03:06:31;;;;;;;9.43;2.80;;;0.20;99.90;;;;;;5065455;28;20229;-72
2024/01/27 03:08:59;;;;;;;9.70;3.50;;;0.30;99.90;;;;;;5065317;28;20229;-70
2024/01/27 03:11:27;;;;;;;14.45;3.88;;;0.20;99.90;;;;;;5063627;28;20215;-69
2024/01/27 03:13:55;;;;;;;11.73;3.20;;;0.20;99.90;;;;;;5063699;28;20209;-70
2024/01/27 03:16:24;;;;;;;9.85;3.38;;;0.10;99.90;;;;;;5066593;28;20227;-70
2024/01/27 03:18:52;;;;;;;9.70;3.60;;;0.10;99.90;;;;;;5065417;28;20580;-70
2024/01/27 03:21:20;;;;;;;16.48;4.22;;;0.10;99.90;;;;;;5065344;28;20788;-69
2024/01/27 03:23:48;;;;;;;10.50;3.60;;;0.10;99.90;;;;;;5066192;28;20343;-69
2024/01/27 03:26:16;;;;;;;9.70;3.00;;;0.20;99.90;;;;;;5066422;28;20779;-69
2024/01/27 03:28:44;;;;;;;11.52;3.72;;;0.10;99.90;;;;;;5066362;28;20225;-69
2024/01/27 03:31:12;;;;;;;9.50;2.95;;;0.10;99.90;;;;;;5064812;28;20210;-71
2024/01/27 03:33:41;;;;;;;10.68;3.20;;;0.00;99.90;;;;;;5065597;28;20209;-70
2024/01/27 03:36:11;;;;;;;12.05;3.10;;;0.00;99.90;;;;;;5066099;28;20209;-70
2024/01/27 03:38:40;;;;;;;12.80;3.15;;;0.00;99.90;;;;;;5066132;28;20259;-70
2024/01/27 03:41:08;;;;;;;11.82;4.25;;;-0.10;99.90;;;;;;5064993;28;20207;-70
2024/01/27 03:43:36;;;;;;;10.55;4.80;;;-0.30;99.90;;;;;;5065818;28;20205;-70
2024/01/27 03:46:04;;;;;;;11.90;4.32;;;-0.20;99.90;;;;;;5065993;28;20248;-71
2024/01/27 03:48:32;;;;;;;10.60;4.38;;;-0.10;99.90;;;;;;5066063;28;20315;-70
2024/01/27 03:51:01;;;;;;;10.68;4.45;;;-0.20;99.90;;;;;;5064575;28;20709;-69
2024/01/27 03:53:29;;;;;;;9.68;3.60;;;-0.10;99.90;;;;;;5065909;28;20205;-68
2024/01/27 03:55:59;;;;;;;10.07;3.75;;;0.00;99.90;;;;;;5065784;28;20281;-69
2024/01/27 03:58:27;;;;;;;11.02;4.38;;;0.10;99.90;;;;;;5065564;28;20760;-70
2024/01/27 04:00:55;;;;;;;10.93;3.72;;;-0.10;99.90;;;;;;5064555;28;20333;-68
2024/01/27 04:03:23;;;;;;;11.07;3.47;;;-0.10;99.90;;;;;;5065545;28;20209;-68
2024/01/27 04:05:51;;;;;;;8.93;3.15;;;-0.20;99.90;;;;;;5065671;28;20237;-68
2024/01/27 04:08:21;;;;;;;8.90;3.45;;;-0.20;99.90;;;;;;5065822;28;20782;-67
2024/01/27 04:10:48;;;;;;;13.23;3.92;;;-0.30;99.90;;;;;;5064958;28;20291;-70
2024/01/27 04:13:16;;;;;;;14.05;4.25;;;-0.20;99.90;;;;;;5064753;28;20601;-71
2024/01/27 04:15:44;;;;;;;12.45;4.38;;;-0.20;99.90;;;;;;5065866;28;20316;-68
2024/01/27 04:18:12;;;;;;;12.23;4.65;;;0.00;99.90;;;;;;5065492;28;20233;-68
2024/01/27 04:20:40;;;;;;;19.92;4.05;;;0.20;99.90;;;;;;5064940;28;20215;-71
2024/01/27 04:23:08;;;;;;;13.82;5.05;;;0.30;99.90;;;;;;5064149;28;20291;-67
2024/01/27 04:25:38;;;;;;;12.65;3.95;;;0.20;99.90;;;;;;5067540;28;20323;-68
2024/01/27 04:28:06;;;;;;;10.73;3.97;;;0.30;99.90;;;;;;5069011;28;20902;-68
2024/01/27 04:30:34;;;;;;;12.05;4.10;;;0.30;99.90;;;;;;5068755;28;20402;-68
2024/01/27 04:33:02;;;;;;;12.80;4.40;;;0.20;99.90;;;;;;5068953;28;20208;-69
2024/01/27 04:35:30;;;;;;;11.07;3.75;;;0.30;99.90;;;;;;5069020;28;20307;-68
2024/01/27 04:37:59;;;;;;;17.02;4.75;;;0.20;99.90;;;;;;5069158;28;20236;-71
2024/01/27 04:40:27;;;;;;;11.15;4.30;;;0.20;99.90;;;;;;5068227;28;20300;-71
2024/01/27 04:42:56;;;;;;;11.50;4.50;;;0.10;99.90;;;;;;5068745;28;20205;-68
2024/01/27 04:45:24;;;;;;;13.38;4.53;;;0.10;99.90;;;;;;5069373;28;20210;-70
2024/01/27 04:47:53;;;;;;;11.90;4.43;;;0.00;99.90;;;;;;5068894;28;20727;-67
2024/01/27 04:50:21;;;;;;;10.70;4.18;;;-0.10;99.90;;;;;;5068300;28;20220;-67
2024/01/27 04:52:49;;;;;;;12.63;3.88;;;-0.30;99.90;;;;;;5068423;28;20256;-68
2024/01/27 04:55:17;;;;;;;13.45;5.25;;;-0.40;99.90;;;;;;5069603;28;20763;-72
2024/01/27 04:57:45;;;;;;;14.35;4.25;;;-0.30;99.90;;;;;;5069709;28;20232;-70
2024/01/27 05:00:16;;;;;;;16.27;3.85;;;-0.30;99.90;;;;;;5069256;28;20201;-68
2024/01/27 05:02:44;;;;;;;10.25;3.40;;;-0.30;99.90;;;;;;5069237;28;20278;-71
2024/01/27 05:05:12;;;;;;;10.73;3.50;;;-0.50;99.90;;;;;;5069965;28;20223;-68
2024/01/27 05:07:40;;;;;;;10.57;3.30;;;-0.50;99.90;;;;;;5070636;28;20237;-68
2024/01/27 05:10:11;;;;;;;13.23;3.90;;;-0.50;99.90;;;;;;5071245;28;20209;-70
2024/01/27 05:12:39;;;;;;;12.70;4.50;;;-0.50;99.90;;;;;;5070521;28;20291;-70
2024/01/27 05:15:08;;;;;;;11.57;3.60;;;-0.40;99.90;;;;;;5069669;28;20208;-69
2024/01/27 05:17:37;;;;;;;13.50;3.40;;;-0.40;99.90;;;;;;5070093;28;20239;-69
2024/01/27 05:20:07;;;;;;;11.60;4.55;;;-0.40;99.90;;;;;;5069789;28;20208;-71
2024/01/27 05:22:35;;;;;;;11.00;3.70;;;-0.40;99.90;;;;;;5070590;28;20213;-70
2024/01/27 05:25:04;;;;;;;10.13;3.40;;;-0.50;99.90;;;;;;5070656;28;20209;-70
2024/01/27 05:27:32;;;;;;;13.93;3.97;;;-0.60;99.90;;;;;;5069350;28;20243;-71
2024/01/27 05:30:00;;;;;;;10.45;4.35;;;-0.60;99.90;;;;;;5069108;28;20205;-71
2024/01/27 05:32:28;;;;;;;11.15;3.60;;;-0.60;99.90;;;;;;5068470;28;20201;-70
2024/01/27 05:34:58;;;;;;;11.63;3.83;;;-0.60;99.90;;;;;;5069126;28;20218;-71
2024/01/27 05:37:25;;;;;;;9.85;3.60;;;-0.60;99.90;;;;;;5068978;28;20231;-70
2024/01/27 05:39:53;;;;;;;11.63;3.83;;;-0.60;99.90;;;;;;5068531;28;20205;-69
2024/01/27 05:42:22;;;;;;;12.73;4.13;;;-0.60;99.90;;;;;;5066581;28;20200;-72
2024/01/27 05:44:50;;;;;;;9.85;3.95;;;-0.70;99.90;;;;;;5067853;28;20208;-69
2024/01/27 05:47:18;;;;;;;12.95;5.28;;;-0.80;99.90;;;;;;5067370;28;20220;-70
2024/01/27 05:49:46;;;;;;;14.90;6.53;;;-0.90;99.90;;;;;;5068113;28;20661;-72
2024/01/27 05:52:16;;;;;;;18.65;7.50;;;-1.00;99.90;;;;;;5066722;28;20208;-73
2024/01/27 05:54:52;;;;;;;13.27;4.32;;;-1.10;99.90;;;;;;5068138;28;20204;-70
2024/01/27 05:57:21;;;;;;;11.70;4.53;;;-1.20;99.90;;;;;;5067944;28;20232;-69
2024/01/27 05:59:49;;;;;;;13.38;4.47;;;-1.10;99.90;;;;;;5067817;28;20208;-70
2024/01/27 06:02:18;;;;;;;15.63;5.60;;;-1.00;99.90;;;;;;5066401;28;20211;-70
2024/01/27 06:04:46;;;;;;;11.60;5.07;;;-1.00;99.90;;;;;;5068010;28;20713;-70
2024/01/27 06:07:15;;;;;;;12.40;4.43;;;-1.10;99.90;;;;;;5067887;28;20234;-70
2024/01/27 06:09:43;;;;;;;14.25;5.10;;;-1.20;99.90;;;;;;5066469;28;20200;-70
2024/01/27 06:12:11;;;;;;;12.82;4.85;;;-1.10;99.90;;;;;;5067548;28;20216;-70
2024/01/27 06:14:41;;;;;;;13.13;4.80;;;-1.10;99.90;;;;;;5068050;28;20205;-70
2024/01/27 06:17:09;;;;;;;14.82;5.75;;;-1.00;99.90;;;;;;5067811;28;20212;-70
2024/01/27 06:19:38;;;;;;;13.57;5.38;;;-1.10;99.90;;;;;;5067765;28;20212;-71
2024/01/27 06:22:06;;;;;;;15.52;4.93;;;-1.10;99.90;;;;;;5066526;28;20424;-69
2024/01/27 06:24:35;;;;;;;12.07;5.18;;;-1.10;99.90;;;;;;5067547;28;20674;-70
2024/01/27 06:27:02;;;;;;;9.95;4.03;;;-1.20;99.90;;;;;;5067806;28;20603;-71
2024/01/27 06:29:30;;;;;;;12.02;4.65;;;-1.30;99.90;;;;;;5067569;28;20208;-71
2024/01/27 06:31:58;;;;;;;14.50;4.22;;;-1.20;99.90;;;;;;5066404;28;20303;-69
2024/01/27 06:34:26;;;;;;;15.23;4.85;;;-1.20;99.90;;;;;;5067447;28;20725;-70
2024/01/27 06:36:54;;;;;;;10.88;4.88;;;-1.10;99.90;;;;;;5067633;28;20200;-69
2024/01/27 06:39:22;;;;;;;12.90;4.40;;;-1.20;99.90;;;;;;5067102;28;20311;-70
2024/01/27 06:41:52;;;;;;;11.73;4.38;;;-1.30;99.90;;;;;;5065411;28;20978;-69
2024/01/27 06:44:19;;;;;;;11.43;4.80;;;-1.30;99.90;;;;;;5068551;28;20217;-70
2024/01/27 06:46:49;;;;;;;11.70;5.10;;;-1.40;99.90;;;;;;5068408;28;20213;-70
2024/01/27 06:49:18;;;;;;;11.85;4.78;;;-1.20;99.90;;;;;;5067819;28;20320;-71
2024/01/27 06:51:46;;;;;;;10.98;4.53;;;-1.30;99.90;;;;;;5066868;28;20243;-72
2024/01/27 06:54:14;;;;;;;11.63;4.30;;;-1.20;99.90;;;;;;5067117;28;20663;-70
2024/01/27 06:56:42;;;;;;;12.63;4.50;;;-1.10;99.90;;;;;;5067227;28;20224;-68
2024/01/27 06:59:12;;;;;;;12.10;5.22;;;-1.20;99.90;;;;;;5067292;28;20224;-70
2024/01/27 07:01:40;;;;;;;12.10;4.30;;;-1.30;99.90;;;;;;5066210;28;20829;-68
2024/01/27 07:04:08;;;;;;;10.85;5.20;;;-1.30;99.90;;;;;;5066955;28;20224;-69
2024/01/27 07:06:36;;;;;;;12.27;5.30;;;-1.40;99.90;;;;;;5069036;28;20243;-68
2024/01/27 07:09:04;;;;;;;11.05;4.80;;;-1.40;99.90;;;;;;5071029;28;20228;-68
2024/01/27 07:11:32;;;;;;;10.50;4.03;;;-1.50;99.90;;;;;;5069103;28;20250;-68
2024/01/27 07:14:00;;;;;;;11.93;4.63;;;-1.50;99.90;;;;;;5070628;28;20210;-71
2024/01/27 07:16:29;;;;;;;14.13;5.25;;;-1.50;99.90;;;;;;5067597;28;20637;-69
2024/01/27 07:18:57;;;;;;;10.10;4.25;;;-1.40;99.90;;;;;;5067129;28;20233;-68
2024/01/27 07:21:26;;;;;;;9.80;4.10;;;-1.20;99.90;;;;;;5070102;28;20208;-69
2024/01/27 07:23:54;;;;;;;12.38;5.43;;;-1.20;99.90;;;;;;5084679;28;20215;-70
2024/01/27 07:26:22;;;;;;;19.08;6.60;;;-1.10;99.90;;;;;;5087739;28;20204;-69
2024/01/27 07:28:50;;;;;;;11.90;6.40;;;-1.00;99.90;;;;;;5079952;28;20235;-68
2024/01/27 07:31:18;;;;;;;14.35;6.28;;;-0.90;99.90;;;;;;5072118;28;20637;-69
2024/01/27 07:33:48;;;;;;;20.15;7.30;;;-0.80;99.90;;;;;;5070599;28;20455;-68
2024/01/27 07:36:17;;;;;;;10.50;4.80;;;-0.90;99.90;;;;;;5071304;28;20208;-68
2024/01/27 07:38:45;;;;;;;13.80;5.45;;;-1.00;99.90;;;;;;5068498;28;20274;-69
2024/01/27 07:41:13;;;;;;;11.88;4.75;;;-0.90;99.90;;;;;;5068383;28;20208;-69
2024/01/27 07:43:41;;;;;;;13.93;5.47;;;-0.80;99.90;;;;;;5070149;28;20212;-69
2024/01/27 07:46:09;;;;;;;10.57;4.90;;;-0.90;99.90;;;;;;5073106;28;20204;-69
2024/01/27 07:48:37;;;;;;;15.43;5.68;;;-0.80;99.90;;;;;;5073016;28;20234;-68
2024/01/27 07:51:07;;;;;;;14.23;5.80;;;-0.70;99.90;;;;;;5069556;28;20210;-68
2024/01/27 07:53:35;;;;;;;14.25;5.60;;;-0.70;99.90;;;;;;5077556;28;20211;-70
2024/01/27 07:56:03;;;;;;;11.90;4.75;;;-0.70;99.90;;;;;;5088796;28;20208;-69
2024/01/27 07:58:35;;;;;;;12.23;5.05;;;-0.70;99.90;;;;;;5090856;28;20213;-71
2024/01/27 08:01:03;;;;;;;13.65;5.20;;;-0.70;99.90;;;;;;5091889;28;20208;-68
2024/01/27 08:03:31;;;;;;;14.85;6.75;;;-0.70;99.90;;;;;;5091919;28;20194;-71
2024/01/27 08:05:59;;;;;;;13.00;5.60;;;-0.50;99.90;;;;;;5091889;28;20214;-68
2024/01/27 08:08:29;;;;;;;13.75;5.30;;;-0.50;99.90;;;;;;5085981;28;20288;-70
2024/01/27 08:10:57;;;;;;;16.48;6.07;;;-0.50;99.90;;;;;;5092876;28;20204;-72
2024/01/27 08:13:25;;;;;;;11.40;5.00;;;-0.50;99.90;;;;;;5092279;28;20199;-73
2024/01/27 08:15:53;;;;;;;11.80;5.15;;;-0.30;99.90;;;;;;5091288;28;20196;-72
2024/01/27 08:18:21;;;;;;;13.35;6.25;;;-0.30;99.90;;;;;;5089363;28;20209;-72
2024/01/27 08:20:49;;;;;;;13.45;5.85;;;-0.30;99.90;;;;;;5085851;28;20212;-70
2024/01/27 08:23:17;;;;;;;12.27;5.10;;;-0.20;99.90;;;;;;5076130;28;20204;-68
2024/01/27 08:25:49;;;;;;;12.18;5.38;;;0.00;99.90;;;;;;5069922;28;20209;-69
2024/01/27 08:28:17;;;;;;;13.02;5.85;;;0.10;99.90;;;;;;5068625;28;20294;-70
2024/01/27 08:30:45;;;;;;;17.48;6.72;;;0.10;99.90;;;;;;5067277;28;20884;-68
2024/01/27 08:33:14;;;;;;;14.18;6.80;;;0.20;99.90;;;;;;5067063;28;20885;-69
2024/01/27 08:35:42;;;;;;;14.52;6.90;;;0.40;99.90;;;;;;5066882;28;20209;-69
2024/01/27 08:38:10;;;;;;;15.02;6.03;;;0.50;99.90;;;;;;5067192;28;20335;-69
2024/01/27 08:40:38;;;;;;;16.10;6.47;;;0.60;99.90;;;;;;5066882;28;20211;-68
2024/01/27 08:43:07;;;;;;;13.88;6.75;;;0.80;99.90;;;;;;5065265;28;20239;-67
2024/01/27 08:45:35;;;;;;;38.38;25.60;;;1.00;99.90;;;;;;5067469;28;20670;-68
2024/01/27 08:48:04;;;;;;;36.25;27.77;;;1.20;99.90;;;;;;5067711;28;20230;-69
2024/01/27 08:50:32;;;;;;;22.65;13.55;;;1.30;99.90;;;;;;5068292;28;20225;-69
2024/01/27 08:53:00;;;;;;;16.60;7.85;;;1.40;99.90;;;;;;5068744;28;20871;-69
2024/01/27 08:55:28;;;;;;;15.43;6.50;;;1.60;99.90;;;;;;5074299;28;20748;-70
2024/01/27 08:57:57;;;;;;;12.77;6.15;;;1.60;99.90;;;;;;5076387;28;20791;-68
2024/01/27 09:00:26;;;;;;;14.10;6.30;;;1.60;99.90;;;;;;5073072;28;20239;-69
2024/01/27 09:02:54;;;;;;;14.77;6.30;;;1.60;99.90;;;;;;5070926;28;20286;-69
2024/01/27 09:05:22;;;;;;;14.55;6.95;;;1.80;99.90;;;;;;5072847;28;20211;-70
2024/01/27 09:07:50;;;;;;;14.98;6.03;;;1.80;99.90;;;;;;5072035;28;20314;-71
2024/01/27 09:10:19;;;;;;;18.02;7.20;;;1.80;99.90;;;;;;5069130;28;20633;-70
2024/01/27 09:12:46;;;;;;;13.20;6.47;;;1.70;99.90;;;;;;5076654;28;20217;-71
2024/01/27 09:15:14;;;;;;;17.05;6.47;;;1.70;99.90;;;;;;5075556;28;20305;-71
2024/01/27 09:17:44;;;;;;;15.90;6.43;;;1.60;99.90;;;;;;5073745;28;20219;-71
2024/01/27 09:20:13;;;;;;;17.50;6.20;;;1.80;99.90;;;;;;5077907;28;20220;-71
2024/01/27 09:22:46;;;;;;;13.95;6.30;;;2.00;99.90;;;;;;5074879;28;20219;-70
2024/01/27 09:25:14;;;;;;;13.68;5.90;;;2.10;99.90;;;;;;5065907;28;20282;-69
2024/01/27 09:27:42;;;;;;;16.40;6.05;;;2.20;99.90;;;;;;5069775;28;20303;-69
2024/01/27 09:30:11;;;;;;;14.00;6.70;;;2.20;99.90;;;;;;5067185;28;20231;-71
2024/01/27 09:32:40;;;;;;;14.30;7.88;;;2.30;99.90;;;;;;5064190;28;20518;-70
2024/01/27 09:35:10;;;;;;;18.33;9.20;;;2.40;99.90;;;;;;5067928;28;20245;-71
2024/01/27 09:37:38;;;;;;;18.20;9.33;;;2.60;99.90;;;;;;5068814;28;20467;-70
2024/01/27 09:40:08;;;;;;;17.20;9.77;;;2.80;99.90;;;;;;5069151;28;20913;-69
2024/01/27 09:42:39;;;;;;;13.10;6.37;;;2.90;99.90;;;;;;5068869;28;20840;-69
2024/01/27 09:45:09;;;;;;;12.87;5.90;;;3.30;99.90;;;;;;5067244;28;20442;-69
2024/01/27 09:47:39;;;;;;;13.97;6.50;;;3.70;99.90;;;;;;5069312;28;20454;-69
2024/01/27 09:50:11;;;;;;;11.17;5.47;;;4.00;99.90;;;;;;5066981;28;20528;-69
2024/01/27 09:52:39;;;;;;;15.57;6.40;;;4.20;99.90;;;;;;5067978;28;20478;-70
2024/01/27 09:55:08;;;;;;;13.00;6.13;;;4.60;99.90;;;;;;5067992;28;20446;-70
2024/01/27 09:57:39;;;;;;;12.43;5.63;;;4.90;99.90;;;;;;5070339;28;20932;-71
2024/01/27 10:00:11;;;;;;;14.00;6.00;;;5.30;99.90;;;;;;5067134;28;20518;-71
2024/01/27 10:02:41;;;;;;;11.30;5.17;;;5.70;99.90;;;;;;5064577;28;20456;-70
2024/01/27 10:05:12;;;;;;;12.40;5.10;;;5.90;99.90;;;;;;5064173;28;20454;-71
2024/01/27 10:07:41;;;;;;;12.60;5.80;;;6.20;99.90;;;;;;5064667;28;20569;-73
2024/01/27 10:10:09;;;;;;;11.33;5.50;;;6.60;99.90;;;;;;5064230;28;20474;-71
2024/01/27 10:12:41;;;;;;;11.87;5.50;;;7.10;99.90;;;;;;5064843;28;20457;-70
2024/01/27 10:15:20;;;;;;;12.90;5.70;;;7.50;99.90;;;;;;5065174;28;20523;-71
2024/01/27 10:17:48;;;;;;;12.60;5.27;;;8.00;99.90;;;;;;5061239;28;20479;-71
2024/01/27 10:20:18;;;;;;;10.20;4.73;;;8.40;99.90;;;;;;5061956;28;21019;-71
2024/01/27 10:22:47;;;;;;;11.53;5.50;;;8.60;99.90;;;;;;5065173;28;20446;-73
2024/01/27 10:25:16;;;;;;;11.70;6.47;;;8.80;99.90;;;;;;5066584;28;20453;-71
2024/01/27 10:27:45;;;;;;;20.33;7.93;;;9.00;99.90;;;;;;5067700;28;20518;-72
2024/01/27 10:30:18;;;;;;;13.90;6.67;;;9.00;99.90;;;;;;5066873;28;20475;-70
2024/01/27 10:32:56;;;;;;;12.70;5.70;;;9.10;99.90;;;;;;5065417;28;20433;-71
2024/01/27 10:35:26;;;;;;;12.50;4.87;;;9.50;99.90;;;;;;5067072;28;20537;-71
2024/01/27 10:37:55;;;;;;;13.07;5.10;;;9.90;99.50;;;;;;5067294;28;20462;-71
2024/01/27 10:40:27;;;;;;;13.27;4.90;;;10.10;98.20;;;;;;5064065;28;20922;-71
2024/01/27 10:43:03;;;;;;;13.20;5.27;;;10.20;96.40;;;;;;5066293;28;20440;-70
2024/01/27 10:45:37;;;;;;;14.90;8.03;;;10.40;95.40;;;;;;5064798;28;20480;-69
2024/01/27 10:48:06;;;;;;;13.77;6.17;;;10.70;94.70;;;;;;5065617;28;20534;-70
2024/01/27 10:50:40;;;;;;;14.70;8.60;;;11.20;94.60;;;;;;5060765;28;21097;-70
2024/01/27 10:53:23;;;;;;;14.37;5.30;;;11.80;92.50;;;;;;5065710;28;20439;-70
2024/01/27 10:55:54;;;;;;;10.77;4.10;;;12.10;90.70;;;;;;5066507;28;20534;-70
2024/01/27 10:58:24;;;;;;;13.60;4.13;;;12.40;88.10;;;;;;5064402;28;20523;-71
2024/01/27 11:00:54;;;;;;;10.97;3.90;;;12.70;83.60;;;;;;5066109;28;20505;-69
2024/01/27 11:03:23;;;;;;;10.90;3.50;;;12.70;82.50;;;;;;5066810;28;20465;-69
2024/01/27 11:05:55;;;;;;;11.00;3.60;;;12.90;81.30;;;;;;5066351;28;20446;-69
2024/01/27 11:08:27;;;;;;;12.63;3.23;;;13.10;79.80;;;;;;5067319;28;20491;-69
2024/01/27 11:10:56;;;;;;;10.70;3.63;;;13.20;77.00;;;;;;5063387;28;20486;-70
2024/01/27 11:13:26;;;;;;;13.00;3.83;;;13.40;76.50;;;;;;5064982;28;20451;-69
2024/01/27 11:15:54;;;;;;;10.63;3.93;;;12.80;75.70;;;;;;5066193;28;20937;-70
2024/01/27 11:18:22;;;;;;;11.03;4.30;;;11.60;78.50;;;;;;5064567;28;20447;-69
2024/01/27 11:20:55;;;;;;;15.40;5.10;;;10.50;83.70;;;;;;5065436;28;20526;-70
2024/01/27 11:23:33;;;;;;;12.17;5.20;;;9.90;88.20;;;;;;5063840;28;20874;-71
2024/01/27 11:26:06;;;;;;;11.80;4.23;;;9.10;90.90;;;;;;5064258;28;20889;-71
2024/01/27 11:28:35;;;;;;;15.83;6.50;;;8.60;93.00;;;;;;5061670;28;20466;-71
2024/01/27 11:31:07;;;;;;;11.67;4.63;;;8.40;94.10;;;;;;5061333;28;20515;-70
2024/01/27 11:33:43;;;;;;;10.77;4.70;;;8.10;94.70;;;;;;5063544;28;20563;-70
2024/01/27 11:36:20;;;;;;;11.67;7.03;;;8.00;95.50;;;;;;5063995;28;21567;-71
2024/01/27 11:38:49;;;;;;;15.33;4.50;;;7.90;96.40;;;;;;5064532;28;20560;-69
2024/01/27 11:41:27;;;;;;;16.03;5.00;;;7.70;96.70;;;;;;5062975;28;20441;-69
2024/01/27 11:43:56;;;;;;;11.90;4.70;;;7.50;97.20;;;;;;5064862;28;20438;-71
2024/01/27 11:46:24;;;;;;;12.77;5.50;;;7.40;98.00;;;;;;5062474;28;20437;-70
2024/01/27 11:48:52;;;;;;;11.77;4.70;;;7.30;97.80;;;;;;5062537;28;20515;-70
2024/01/27 11:51:23;;;;;;;12.63;5.00;;;7.20;98.60;;;;;;5064139;28;20540;-70
2024/01/27 11:53:51;;;;;;;11.47;4.73;;;7.20;99.00;;;;;;5064561;28;20445;-70
2024/01/27 11:56:21;;;;;;;10.40;3.93;;;7.10;98.60;;;;;;5063777;28;20470;-69
2024/01/27 11:58:50;;;;;;;12.63;4.40;;;7.00;98.60;;;;;;5063786;28;20468;-69
2024/01/27 12:01:18;;;;;;;9.80;3.63;;;7.00;99.30;;;;;;5063117;28;20870;-68
2024/01/27 12:03:46;;;;;;;11.87;3.97;;;7.00;99.40;;;;;;5062933;28;21972;-70
2024/01/27 12:06:14;;;;;;;14.17;4.20;;;7.00;99.60;;;;;;5062930;28;20504;-69
2024/01/27 12:08:46;;;;;;;13.43;4.20;;;7.00;99.90;;;;;;5064433;28;20469;-69
2024/01/27 12:11:16;;;;;;;10.17;3.60;;;7.00;99.80;;;;;;5062927;28;21076;-69
2024/01/27 12:13:49;;;;;;;13.53;3.70;;;6.90;99.90;;;;;;5063940;28;21009;-70
2024/01/27 12:16:17;;;;;;;12.03;4.30;;;7.00;99.60;;;;;;5064624;28;20885;-71
2024/01/27 12:18:46;;;;;;;10.67;3.60;;;7.10;99.80;;;;;;5064585;28;20464;-70
2024/01/27 12:21:14;;;;;;;11.83;4.70;;;7.10;99.70;;;;;;5060264;28;21100;-70
2024/01/27 12:23:54;;;;;;;11.70;4.43;;;7.20;99.90;;;;;;5061603;28;20530;-70
2024/01/27 12:26:23;;;;;;;13.50;4.07;;;7.20;99.80;;;;;;5062585;28;20476;-71
2024/01/27 12:28:51;;;;;;;13.57;5.20;;;7.10;99.90;;;;;;5064975;28;20471;-72
2024/01/27 12:31:19;;;;;;;12.57;3.67;;;7.10;99.90;;;;;;5064661;28;20483;-71
2024/01/27 12:33:51;;;;;;;10.77;4.70;;;7.00;99.90;;;;;;5065033;28;21006;-70
2024/01/27 12:36:20;;;;;;;11.63;4.83;;;7.10;99.90;;;;;;5065583;28;20442;-71
2024/01/27 12:38:55;;;;;;;10.93;4.40;;;7.20;99.90;;;;;;5065164;28;20460;-71
2024/01/27 12:41:25;;;;;;;11.00;4.30;;;7.20;99.90;;;;;;5063059;28;20528;-72
2024/01/27 12:43:53;;;;;;;13.07;4.80;;;7.40;99.40;;;;;;5066035;28;20557;-70
2024/01/27 12:46:21;;;;;;;14.00;4.20;;;7.50;99.90;;;;;;5067307;28;21085;-72
2024/01/27 12:48:49;;;;;;;16.83;4.53;;;7.50;99.40;;;;;;5067343;28;20462;-72
2024/01/27 12:51:17;;;;;;;9.77;4.23;;;7.30;99.10;;;;;;5066511;28;20832;-70